createdAt,value
2022-10-17T00:00:41.513Z,99393.50
2022-10-17T00:01:44.611Z,99396.88
2022-10-17T00:02:47.700Z,99391.22
2022-10-17T00:03:50.741Z,99389.34
2022-10-17T00:04:53.697Z,99393.03
2022-10-17T00:05:57.925Z,99399.66
2022-10-17T00:07:01.248Z,99398.09
2022-10-17T00:08:04.381Z,99390.66
2022-10-17T00:09:07.318Z,99399.34
2022-10-17T00:10:10.238Z,99398.28
2022-10-17T00:11:22.825Z,99399.59
2022-10-17T00:12:25.726Z,99391.97
2022-10-17T00:13:29.247Z,99394.09
2022-10-17T00:14:32.117Z,99393.03
2022-10-17T00:15:35.339Z,99403.78
2022-10-17T00:16:38.489Z,99399.09
2022-10-17T00:17:42.251Z,99396.44
2022-10-17T00:18:45.075Z,99399.91
2022-10-17T00:19:47.946Z,99405.69
2022-10-17T00:20:50.851Z,99399.34
2022-10-17T00:21:53.904Z,99403.00
2022-10-17T00:22:57.698Z,99399.09
2022-10-17T00:24:01.652Z,99399.09
2022-10-17T00:25:04.880Z,99398.34
2022-10-17T00:26:08.087Z,99403.84
2022-10-17T00:27:10.996Z,99399.59
2022-10-17T00:28:15.999Z,99398.28
2022-10-17T00:29:18.932Z,99390.91
2022-10-17T00:30:21.780Z,99395.66
2022-10-17T00:31:25.492Z,99393.56
2022-10-17T00:32:28.677Z,99394.62
2022-10-17T00:33:32.662Z,99403.28
2022-10-17T00:34:35.593Z,99401.72
2022-10-17T00:35:38.434Z,99398.28
2022-10-17T00:36:41.558Z,99390.94
2022-10-17T00:37:44.437Z,99389.38
2022-10-17T00:38:50.715Z,99399.31
2022-10-17T00:39:54.619Z,99396.97
2022-10-17T00:40:57.505Z,99398.56
2022-10-17T00:42:00.365Z,99400.44
2022-10-17T00:43:03.143Z,99395.72
2022-10-17T00:44:30.947Z,99400.38
2022-10-17T00:45:33.711Z,99402.75
2022-10-17T00:46:39.126Z,99396.69
2022-10-17T00:47:44.934Z,99401.16
2022-10-17T00:48:51.295Z,99400.38
2022-10-17T00:49:57.474Z,99397.25
2022-10-17T00:51:00.418Z,99399.31
2022-10-17T00:52:06.777Z,99398.81
2022-10-17T00:53:11.143Z,99411.75
2022-10-17T00:54:16.503Z,99393.38
2022-10-17T00:55:29.664Z,99399.72
2022-10-17T00:56:33.241Z,99403.91
2022-10-17T00:57:36.500Z,99400.75
2022-10-17T00:58:39.314Z,99391.56
2022-10-17T00:59:45.413Z,99394.16
2022-10-17T01:00:48.732Z,99397.09
2022-10-17T01:02:04.540Z,99398.19
2022-10-17T01:03:08.418Z,99391.56
2022-10-17T01:04:11.215Z,99392.63
2022-10-17T01:05:15.693Z,99391.06
2022-10-17T01:06:18.624Z,99394.72
2022-10-17T01:07:21.654Z,99399.47
2022-10-17T01:08:25.810Z,99393.63
2022-10-17T01:09:30.472Z,99396.28
2022-10-17T01:10:55.135Z,99390.78
2022-10-17T01:12:12.492Z,99395.78
2022-10-17T01:13:46.212Z,99390.22
2022-10-17T01:15:07.217Z,99397.56
2022-10-17T01:16:27.092Z,99399.66
2022-10-17T01:17:40.062Z,99393.16
2022-10-17T01:18:57.304Z,99389.91
2022-10-17T01:20:41.933Z,99397.25
2022-10-17T01:21:59.329Z,99382.53
2022-10-17T01:23:26.340Z,99383.31
2022-10-17T01:25:00.056Z,99388.31
2022-10-17T01:26:06.336Z,99389.63
2022-10-17T01:27:44.612Z,99389.63
2022-10-17T01:29:01.694Z,99388.28
2022-10-17T01:30:16.540Z,99392.25
2022-10-17T01:31:58.135Z,99384.75
2022-10-17T01:33:16.063Z,99385.75
2022-10-17T01:34:39.781Z,99385.84
2022-10-17T01:35:52.695Z,99383.41
2022-10-17T01:37:06.576Z,99386.53
2022-10-17T01:38:23.701Z,99391.53
2022-10-17T01:39:28.095Z,99385.66
2022-10-17T01:40:51.582Z,99385.44
2022-10-17T01:42:31.063Z,99391.47
2022-10-17T01:43:42.453Z,99385.16
2022-10-17T01:45:03.491Z,99394.91
2022-10-17T01:46:16.456Z,99392.75
2022-10-17T01:47:23.254Z,99389.69
2022-10-17T01:48:32.855Z,99392.88
2022-10-17T01:49:39.011Z,99395.78
2022-10-17T01:50:53.934Z,99394.41
2022-10-17T01:52:03.052Z,99386.22
2022-10-17T01:53:14.092Z,99397.25
2022-10-17T01:54:41.900Z,99388.81
2022-10-17T01:55:47.496Z,99390.38
2022-10-17T01:56:55.533Z,99389.59
2022-10-17T01:58:05.975Z,99399.28
2022-10-17T01:59:17.862Z,99391.66
2022-10-17T02:00:27.052Z,99393.84
2022-10-17T02:01:31.641Z,99395.91
2022-10-17T02:02:36.583Z,99395.16
2022-10-17T02:03:43.215Z,99393.72
2022-10-17T02:04:49.278Z,99394.81
2022-10-17T02:05:52.252Z,99399.53
2022-10-17T02:06:55.064Z,99398.97
2022-10-17T02:07:58.338Z,99392.31
2022-10-17T02:09:01.220Z,99401.31
2022-10-17T02:10:15.649Z,99396.50
2022-10-17T02:11:22.303Z,99391.25
2022-10-17T02:12:34.263Z,99401.81
2022-10-17T02:13:46.218Z,99395.16
2022-10-17T02:15:34.021Z,99398.91
2022-10-17T02:17:05.974Z,99400.19
2022-10-17T02:18:31.251Z,99395.16
2022-10-17T02:20:16.100Z,99394.59
2022-10-17T02:21:34.099Z,99391.22
2022-10-17T02:22:52.062Z,99391.19
2022-10-17T02:24:11.067Z,99395.62
2022-10-17T02:25:42.412Z,99396.47
2022-10-17T02:27:19.774Z,99386.06
2022-10-17T02:28:48.352Z,99390.44
2022-10-17T02:30:03.193Z,99388.56
2022-10-17T02:31:15.722Z,99392.59
2022-10-17T02:32:26.597Z,99387.34
2022-10-17T02:33:44.064Z,99397.56
2022-10-17T02:34:51.067Z,99401.25
2022-10-17T02:35:58.787Z,99402.31
2022-10-17T02:37:06.154Z,99397.00
2022-10-17T02:38:11.460Z,99403.03
2022-10-17T02:39:16.548Z,99407.31
2022-10-17T02:40:26.375Z,99407.00
2022-10-17T02:41:31.929Z,99400.19
2022-10-17T02:42:35.861Z,99403.91
2022-10-17T02:43:39.856Z,99408.38
2022-10-17T02:44:45.299Z,99401.53
2022-10-17T02:45:49.095Z,99402.69
2022-10-17T02:46:59.735Z,99410.78
2022-10-17T02:48:08.654Z,99419.69
2022-10-17T02:49:34.494Z,99410.72
2022-10-17T02:51:14.578Z,99403.34
2022-10-17T02:52:36.136Z,99414.00
2022-10-17T02:53:49.534Z,99422.94
2022-10-17T02:54:58.744Z,99411.91
2022-10-17T02:56:08.894Z,99419.53
2022-10-17T02:57:31.492Z,99418.50
2022-10-17T02:58:38.007Z,99417.47
2022-10-17T02:59:42.181Z,99422.47
2022-10-17T03:00:45.719Z,99419.53
2022-10-17T03:01:52.272Z,99418.56
2022-10-17T03:02:55.614Z,99420.66
2022-10-17T03:04:15.315Z,99417.53
2022-10-17T03:05:21.913Z,99418.31
2022-10-17T03:06:24.893Z,99418.09
2022-10-17T03:07:27.653Z,99423.09
2022-10-17T03:08:30.696Z,99418.03
2022-10-17T03:09:33.611Z,99422.81
2022-10-17T03:10:36.413Z,99424.94
2022-10-17T03:11:39.412Z,99416.00
2022-10-17T03:12:42.373Z,99422.03
2022-10-17T03:13:45.217Z,99417.56
2022-10-17T03:14:48.013Z,99417.31
2022-10-17T03:15:50.937Z,99418.03
2022-10-17T03:16:53.693Z,99418.34
2022-10-17T03:17:56.621Z,99429.31
2022-10-17T03:18:59.455Z,99427.50
2022-10-17T03:20:02.781Z,99434.38
2022-10-17T03:21:09.373Z,99428.34
2022-10-17T03:22:12.331Z,99436.47
2022-10-17T03:23:15.251Z,99434.59
2022-10-17T03:24:18.061Z,99429.09
2022-10-17T03:25:20.981Z,99429.66
2022-10-17T03:26:23.893Z,99434.38
2022-10-17T03:27:27.072Z,99440.91
2022-10-17T03:28:30.714Z,99432.50
2022-10-17T03:29:33.599Z,99436.41
2022-10-17T03:30:38.858Z,99440.66
2022-10-17T03:31:41.699Z,99435.66
2022-10-17T03:32:44.623Z,99437.47
2022-10-17T03:33:47.536Z,99440.91
2022-10-17T03:34:50.412Z,99444.84
2022-10-17T03:35:53.253Z,99443.28
2022-10-17T03:36:56.190Z,99449.56
2022-10-17T03:37:59.997Z,99446.97
2022-10-17T03:39:02.856Z,99449.34
2022-10-17T03:40:06.345Z,99451.19
2022-10-17T03:41:09.558Z,99453.81
2022-10-17T03:42:12.381Z,99451.19
2022-10-17T03:43:15.256Z,99449.88
2022-10-17T03:44:18.118Z,99454.34
2022-10-17T03:45:21.002Z,99460.37
2022-10-17T03:46:23.962Z,99452.50
2022-10-17T03:47:28.633Z,99455.13
2022-10-17T03:48:37.996Z,99461.69
2022-10-17T03:49:40.855Z,99454.34
2022-10-17T03:50:43.758Z,99460.37
2022-10-17T03:51:46.822Z,99454.59
2022-10-17T03:52:50.269Z,99461.41
2022-10-17T03:53:53.210Z,99457.75
2022-10-17T03:54:56.118Z,99458.25
2022-10-17T03:56:19.822Z,99460.37
2022-10-17T03:57:22.653Z,99463.00
2022-10-17T03:58:25.413Z,99464.56
2022-10-17T03:59:28.236Z,99458.25
2022-10-17T04:00:31.036Z,99463.25
2022-10-17T04:01:34.011Z,99469.25
2022-10-17T04:02:36.875Z,99458.25
2022-10-17T04:03:40.082Z,99463.50
2022-10-17T04:04:42.840Z,99462.19
2022-10-17T04:05:45.607Z,99460.34
2022-10-17T04:06:48.792Z,99456.44
2022-10-17T04:07:51.563Z,99461.13
2022-10-17T04:08:54.459Z,99466.13
2022-10-17T04:09:57.252Z,99466.13
2022-10-17T04:11:01.578Z,99468.16
2022-10-17T04:12:04.559Z,99467.87
2022-10-17T04:13:07.456Z,99466.56
2022-10-17T04:14:10.606Z,99467.09
2022-10-17T04:15:13.571Z,99468.13
2022-10-17T04:16:18.317Z,99466.31
2022-10-17T04:17:21.247Z,99473.94
2022-10-17T04:18:25.108Z,99472.34
2022-10-17T04:19:28.085Z,99474.22
2022-10-17T04:20:30.930Z,99470.81
2022-10-17T04:21:33.969Z,99464.53
2022-10-17T04:22:36.879Z,99472.91
2022-10-17T04:23:40.066Z,99468.44
2022-10-17T04:24:43.151Z,99472.38
2022-10-17T04:25:46.157Z,99469.50
2022-10-17T04:26:52.406Z,99479.22
2022-10-17T04:27:55.166Z,99472.91
2022-10-17T04:28:58.067Z,99472.09
2022-10-17T04:30:00.848Z,99471.84
2022-10-17T04:31:06.329Z,99468.91
2022-10-17T04:32:09.007Z,99468.13
2022-10-17T04:33:11.716Z,99475.97
2022-10-17T04:34:16.391Z,99470.50
2022-10-17T04:35:19.370Z,99479.12
2022-10-17T04:36:23.748Z,99474.44
2022-10-17T04:37:30.427Z,99473.94
2022-10-17T04:38:34.401Z,99476.25
2022-10-17T04:39:37.335Z,99483.56
2022-10-17T04:40:40.137Z,99480.72
2022-10-17T04:41:42.871Z,99479.41
2022-10-17T04:42:45.821Z,99484.63
2022-10-17T04:43:51.147Z,99485.94
2022-10-17T04:44:54.429Z,99483.84
2022-10-17T04:46:03.552Z,99481.78
2022-10-17T04:47:06.251Z,99480.75
2022-10-17T04:48:09.542Z,99485.97
2022-10-17T04:49:15.432Z,99487.44
2022-10-17T04:50:18.449Z,99489.81
2022-10-17T04:51:23.308Z,99489.09
2022-10-17T04:52:29.034Z,99484.91
2022-10-17T04:53:34.597Z,99497.75
2022-10-17T04:54:37.380Z,99489.34
2022-10-17T04:55:40.247Z,99487.78
2022-10-17T04:56:52.039Z,99492.22
2022-10-17T04:57:55.078Z,99499.09
2022-10-17T04:58:59.789Z,99489.09
2022-10-17T05:00:02.967Z,99492.25
2022-10-17T05:01:11.749Z,99495.69
2022-10-17T05:02:14.647Z,99495.31
2022-10-17T05:03:17.929Z,99501.69
2022-10-17T05:04:23.925Z,99499.84
2022-10-17T05:05:27.854Z,99496.38
2022-10-17T05:06:31.768Z,99503.75
2022-10-17T05:07:34.718Z,99499.03
2022-10-17T05:08:37.556Z,99506.13
2022-10-17T05:09:40.309Z,99498.69
2022-10-17T05:10:46.394Z,99503.69
2022-10-17T05:11:49.461Z,99495.81
2022-10-17T05:12:52.371Z,99500.78
2022-10-17T05:14:01.068Z,99505.66
2022-10-17T05:15:07.454Z,99503.34
2022-10-17T05:16:11.011Z,99502.75
2022-10-17T05:17:13.764Z,99507.69
2022-10-17T05:18:16.665Z,99509.28
2022-10-17T05:19:19.495Z,99509.28
2022-10-17T05:20:22.477Z,99510.31
2022-10-17T05:21:27.372Z,99507.72
2022-10-17T05:22:30.325Z,99506.41
2022-10-17T05:23:33.570Z,99510.63
2022-10-17T05:24:39.466Z,99525.50
2022-10-17T05:25:42.237Z,99517.66
2022-10-17T05:26:45.296Z,99519.47
2022-10-17T05:27:48.205Z,99522.09
2022-10-17T05:28:52.689Z,99524.25
2022-10-17T05:29:55.717Z,99528.44
2022-10-17T05:31:06.646Z,99529.47
2022-10-17T05:32:09.150Z,99525.53
2022-10-17T05:33:11.915Z,99522.41
2022-10-17T05:34:14.710Z,99531.00
2022-10-17T05:35:17.484Z,99532.53
2022-10-17T05:36:20.705Z,99534.94
2022-10-17T05:37:23.769Z,99533.66
2022-10-17T05:38:27.965Z,99537.31
2022-10-17T05:39:30.871Z,99532.09
2022-10-17T05:40:34.731Z,99531.06
2022-10-17T05:41:37.628Z,99542.09
2022-10-17T05:43:48.221Z,99534.72
2022-10-17T05:44:51.095Z,99540.78
2022-10-17T05:45:54.659Z,99538.91
2022-10-17T05:46:57.639Z,99543.87
2022-10-17T05:48:00.534Z,99542.06
2022-10-17T05:49:14.650Z,99544.66
2022-10-17T05:50:24.227Z,99548.12
2022-10-17T05:51:27.208Z,99546.28
2022-10-17T05:52:30.916Z,99553.38
2022-10-17T05:53:36.432Z,99556.78
2022-10-17T05:54:39.330Z,99560.72
2022-10-17T05:55:42.152Z,99557.88
2022-10-17T05:56:44.923Z,99556.28
2022-10-17T05:57:47.934Z,99557.88
2022-10-17T05:58:54.068Z,99558.91
2022-10-17T05:59:57.926Z,99563.12
2022-10-17T06:01:04.119Z,99564.41
2022-10-17T06:02:07.167Z,99563.88
2022-10-17T06:03:12.809Z,99563.09
2022-10-17T06:04:15.776Z,99566.78
2022-10-17T06:05:18.775Z,99573.84
2022-10-17T06:06:21.855Z,99562.25
2022-10-17T06:07:24.630Z,99573.56
2022-10-17T06:08:27.406Z,99577.78
2022-10-17T06:09:30.308Z,99575.97
2022-10-17T06:10:33.205Z,99579.66
2022-10-17T06:11:36.667Z,99577.56
2022-10-17T06:12:39.845Z,99586.44
2022-10-17T06:13:42.835Z,99581.19
2022-10-17T06:14:45.613Z,99574.94
2022-10-17T06:15:48.426Z,99582.53
2022-10-17T06:16:52.256Z,99588.31
2022-10-17T06:17:55.303Z,99590.66
2022-10-17T06:18:58.014Z,99584.38
2022-10-17T06:20:00.890Z,99595.66
2022-10-17T06:21:06.594Z,99587.53
2022-10-17T06:22:09.584Z,99591.19
2022-10-17T06:23:12.349Z,99591.94
2022-10-17T06:24:15.369Z,99604.03
2022-10-17T06:25:18.364Z,99598.03
2022-10-17T06:26:21.251Z,99594.34
2022-10-17T06:27:28.520Z,99598.31
2022-10-17T06:28:31.950Z,99602.78
2022-10-17T06:29:34.792Z,99596.72
2022-10-17T06:30:41.652Z,99600.16
2022-10-17T06:31:44.578Z,99603.28
2022-10-17T06:32:47.629Z,99597.25
2022-10-17T06:33:50.493Z,99601.97
2022-10-17T06:34:53.456Z,99604.63
2022-10-17T06:35:57.255Z,99610.13
2022-10-17T06:37:00.139Z,99607.25
2022-10-17T06:38:07.622Z,99608.84
2022-10-17T06:39:10.564Z,99613.03
2022-10-17T06:40:15.446Z,99611.22
2022-10-17T06:41:19.604Z,99607.03
2022-10-17T06:42:22.523Z,99609.12
2022-10-17T06:43:27.791Z,99612.78
2022-10-17T06:44:32.144Z,99616.47
2022-10-17T06:45:34.968Z,99621.47
2022-10-17T06:46:41.306Z,99621.44
2022-10-17T06:47:44.043Z,99627.53
2022-10-17T06:48:47.068Z,99626.72
2022-10-17T06:49:49.860Z,99624.62
2022-10-17T06:50:52.697Z,99629.84
2022-10-17T06:51:55.521Z,99625.38
2022-10-17T06:52:58.572Z,99624.28
2022-10-17T06:54:01.486Z,99634.50
2022-10-17T06:55:08.653Z,99631.06
2022-10-17T06:56:11.751Z,99635.47
2022-10-17T06:57:14.513Z,99634.09
2022-10-17T06:58:17.361Z,99629.59
2022-10-17T06:59:23.679Z,99635.34
2022-10-17T07:00:27.079Z,99625.28
2022-10-17T07:01:32.085Z,99635.25
2022-10-17T07:02:34.985Z,99632.03
2022-10-17T07:03:38.606Z,99627.28
2022-10-17T07:04:41.387Z,99636.28
2022-10-17T07:05:52.482Z,99629.47
2022-10-17T07:06:55.378Z,99635.47
2022-10-17T07:07:58.197Z,99642.53
2022-10-17T07:09:03.116Z,99648.00
2022-10-17T07:10:08.850Z,99628.63
2022-10-17T07:11:17.309Z,99643.25
2022-10-17T07:12:20.166Z,99643.09
2022-10-17T07:13:23.346Z,99649.81
2022-10-17T07:14:32.359Z,99647.25
2022-10-17T07:15:35.149Z,99641.88
2022-10-17T07:16:37.991Z,99648.72
2022-10-17T07:17:40.878Z,99652.44
2022-10-17T07:18:44.139Z,99651.81
2022-10-17T07:19:47.731Z,99647.41
2022-10-17T07:20:55.079Z,99654.03
2022-10-17T07:21:59.678Z,99651.41
2022-10-17T07:23:02.836Z,99656.50
2022-10-17T07:24:07.697Z,99651.44
2022-10-17T07:25:10.511Z,99648.50
2022-10-17T07:26:16.317Z,99648.34
2022-10-17T07:27:19.142Z,99651.28
2022-10-17T07:28:24.966Z,99647.41
2022-10-17T07:29:27.883Z,99643.25
2022-10-17T07:30:30.890Z,99652.66
2022-10-17T07:31:33.972Z,99650.75
2022-10-17T07:32:37.045Z,99654.53
2022-10-17T07:33:39.983Z,99654.03
2022-10-17T07:34:42.773Z,99664.19
2022-10-17T07:35:45.535Z,99661.34
2022-10-17T07:36:48.205Z,99658.63
2022-10-17T07:37:51.148Z,99655.91
2022-10-17T07:38:54.578Z,99656.38
2022-10-17T07:39:58.527Z,99664.53
2022-10-17T07:41:04.653Z,99656.97
2022-10-17T07:42:10.688Z,99660.50
2022-10-17T07:43:13.559Z,99664.22
2022-10-17T07:44:16.653Z,99660.81
2022-10-17T07:45:19.438Z,99662.44
2022-10-17T07:46:22.462Z,99661.97
2022-10-17T07:47:25.571Z,99661.69
2022-10-17T07:48:29.215Z,99665.50
2022-10-17T07:49:32.097Z,99668.75
2022-10-17T07:50:35.022Z,99661.84
2022-10-17T07:51:37.921Z,99662.03
2022-10-17T07:52:43.421Z,99670.66
2022-10-17T07:53:48.740Z,99664.84
2022-10-17T07:54:52.231Z,99666.28
2022-10-17T07:55:55.029Z,99663.69
2022-10-17T07:56:58.156Z,99663.19
2022-10-17T07:58:01.129Z,99660.25
2022-10-17T07:59:08.254Z,99662.59
2022-10-17T08:00:16.711Z,99659.16
2022-10-17T08:01:19.497Z,99661.66
2022-10-17T08:02:24.456Z,99662.75
2022-10-17T08:03:27.169Z,99672.25
2022-10-17T08:04:30.097Z,99675.44
2022-10-17T08:05:37.591Z,99672.38
2022-10-17T08:06:40.557Z,99678.94
2022-10-17T08:07:43.464Z,99679.72
2022-10-17T08:08:46.406Z,99678.78
2022-10-17T08:09:49.317Z,99681.94
2022-10-17T08:10:52.409Z,99677.16
2022-10-17T08:11:55.190Z,99684.59
2022-10-17T08:12:58.927Z,99683.28
2022-10-17T08:14:01.739Z,99687.19
2022-10-17T08:15:06.270Z,99685.47
2022-10-17T08:16:12.464Z,99682.69
2022-10-17T08:17:15.777Z,99689.09
2022-10-17T08:18:21.958Z,99689.41
2022-10-17T08:19:25.029Z,99686.75
2022-10-17T08:20:27.841Z,99696.28
2022-10-17T08:21:31.411Z,99686.13
2022-10-17T08:22:34.156Z,99688.94
2022-10-17T08:23:37.837Z,99687.69
2022-10-17T08:24:40.665Z,99680.34
2022-10-17T08:25:43.531Z,99684.72
2022-10-17T08:26:49.585Z,99687.06
2022-10-17T08:27:54.844Z,99688.63
2022-10-17T08:28:57.879Z,99682.75
2022-10-17T08:30:01.819Z,99686.75
2022-10-17T08:31:12.311Z,99686.19
2022-10-17T08:32:15.259Z,99689.97
2022-10-17T08:33:18.136Z,99685.12
2022-10-17T08:34:21.037Z,99686.94
2022-10-17T08:35:27.592Z,99679.41
2022-10-17T08:36:30.377Z,99686.75
2022-10-17T08:37:36.747Z,99689.81
2022-10-17T08:38:43.806Z,99686.34
2022-10-17T08:39:47.021Z,99689.13
2022-10-17T08:40:50.012Z,99694.84
2022-10-17T08:42:04.737Z,99700.94
2022-10-17T08:43:45.123Z,99689.44
2022-10-17T08:45:41.919Z,99688.25
2022-10-17T08:46:48.043Z,99694.66
2022-10-17T08:47:59.446Z,99686.97
2022-10-17T08:49:06.567Z,99696.91
2022-10-17T08:50:22.516Z,99697.69
2022-10-17T08:51:32.415Z,99694.41
2022-10-17T08:53:10.315Z,99691.53
2022-10-17T08:54:31.233Z,99691.56
2022-10-17T08:55:41.493Z,99696.87
2022-10-17T08:56:51.518Z,99692.84
2022-10-17T08:57:54.367Z,99699.75
2022-10-17T08:58:58.438Z,99694.19
2022-10-17T09:00:01.502Z,99707.44
2022-10-17T09:01:06.976Z,99692.31
2022-10-17T09:02:43.164Z,99704.09
2022-10-17T09:04:21.241Z,99699.75
2022-10-17T09:05:48.207Z,99690.63
2022-10-17T09:07:22.639Z,99694.50
2022-10-17T09:08:49.701Z,99696.19
2022-10-17T09:10:09.357Z,99698.00
2022-10-17T09:11:30.261Z,99689.31
2022-10-17T09:12:48.019Z,99694.84
2022-10-17T09:14:13.227Z,99691.28
2022-10-17T09:15:47.474Z,99696.53
2022-10-17T09:17:18.068Z,99692.47
2022-10-17T09:18:40.492Z,99692.84
2022-10-17T09:20:10.320Z,99693.38
2022-10-17T09:21:33.791Z,99691.97
2022-10-17T09:23:02.584Z,99694.34
2022-10-17T09:24:15.900Z,99692.62
2022-10-17T09:25:21.118Z,99695.16
2022-10-17T09:26:26.117Z,99698.78
2022-10-17T09:27:46.014Z,99686.19
2022-10-17T09:28:56.608Z,99697.47
2022-10-17T09:30:40.476Z,99695.75
2022-10-17T09:32:02.849Z,99695.72
2022-10-17T09:33:42.290Z,99693.56
2022-10-17T09:34:54.485Z,99699.38
2022-10-17T09:35:59.639Z,99696.78
2022-10-17T09:37:03.293Z,99700.47
2022-10-17T09:38:06.276Z,99700.47
2022-10-17T09:39:19.831Z,99700.66
2022-10-17T09:40:32.357Z,99700.12
2022-10-17T09:41:45.482Z,99707.66
2022-10-17T09:42:51.745Z,99710.09
2022-10-17T09:43:58.601Z,99710.00
2022-10-17T09:45:06.008Z,99700.50
2022-10-17T09:46:23.734Z,99701.19
2022-10-17T09:47:42.044Z,99702.44
2022-10-17T09:48:54.476Z,99698.84
2022-10-17T09:49:58.023Z,99693.94
2022-10-17T09:51:14.674Z,99697.50
2022-10-17T09:52:34.038Z,99701.44
2022-10-17T09:53:43.178Z,99693.78
2022-10-17T09:54:53.085Z,99701.75
2022-10-17T09:56:03.419Z,99699.66
2022-10-17T09:57:08.958Z,99706.81
2022-10-17T09:58:12.905Z,99700.25
2022-10-17T09:59:31.970Z,99696.94
2022-10-17T10:00:38.733Z,99700.34
2022-10-17T10:01:41.571Z,99696.44
2022-10-17T10:02:44.449Z,99697.91
2022-10-17T10:03:48.054Z,99704.06
2022-10-17T10:05:07.104Z,99701.38
2022-10-17T10:06:19.689Z,99713.28
2022-10-17T10:07:28.260Z,99694.41
2022-10-17T10:08:55.891Z,99701.59
2022-10-17T10:10:00.469Z,99697.50
2022-10-17T10:11:07.872Z,99700.38
2022-10-17T10:12:23.348Z,99697.09
2022-10-17T10:13:33.669Z,99697.22
2022-10-17T10:14:39.861Z,99690.16
2022-10-17T10:15:48.022Z,99694.97
2022-10-17T10:16:54.043Z,99693.94
2022-10-17T10:17:56.979Z,99702.09
2022-10-17T10:19:00.009Z,99694.53
2022-10-17T10:20:30.479Z,99680.91
2022-10-17T10:21:37.391Z,99692.94
2022-10-17T10:22:40.494Z,99687.44
2022-10-17T10:24:06.332Z,99688.94
2022-10-17T10:25:16.977Z,99707.69
2022-10-17T10:26:34.984Z,99695.63
2022-10-17T10:27:41.229Z,99695.59
2022-10-17T10:28:54.806Z,99696.37
2022-10-17T10:29:57.790Z,99696.31
2022-10-17T10:31:05.152Z,99694.44
2022-10-17T10:32:31.474Z,99690.22
2022-10-17T10:33:41.756Z,99690.41
2022-10-17T10:34:50.207Z,99688.34
2022-10-17T10:35:58.289Z,99687.16
2022-10-17T10:37:26.820Z,99689.19
2022-10-17T10:38:32.601Z,99678.88
2022-10-17T10:39:43.993Z,99695.75
2022-10-17T10:40:54.977Z,99690.75
2022-10-17T10:41:57.954Z,99688.31
2022-10-17T10:43:05.408Z,99685.81
2022-10-17T10:44:16.474Z,99684.97
2022-10-17T10:45:48.984Z,99689.13
2022-10-17T10:47:17.959Z,99693.94
2022-10-17T10:48:24.938Z,99688.22
2022-10-17T10:49:32.445Z,99691.50
2022-10-17T10:50:46.753Z,99685.97
2022-10-17T10:51:50.515Z,99680.34
2022-10-17T10:53:34.976Z,99683.78
2022-10-17T10:54:51.087Z,99687.81
2022-10-17T10:55:59.686Z,99688.31
2022-10-17T10:57:07.564Z,99683.91
2022-10-17T10:58:30.576Z,99680.31
2022-10-17T10:59:36.957Z,99676.06
2022-10-17T11:00:40.285Z,99686.31
2022-10-17T11:02:03.474Z,99681.25
2022-10-17T11:03:35.249Z,99678.31
2022-10-17T11:04:46.608Z,99672.94
2022-10-17T11:06:11.186Z,99681.94
2022-10-17T11:07:29.118Z,99680.53
2022-10-17T11:08:47.974Z,99688.66
2022-10-17T11:10:15.688Z,99680.22
2022-10-17T11:11:26.060Z,99680.84
2022-10-17T11:12:39.310Z,99676.16
2022-10-17T11:13:55.220Z,99683.03
2022-10-17T11:15:22.549Z,99683.53
2022-10-17T11:16:46.371Z,99677.06
2022-10-17T11:18:07.685Z,99676.88
2022-10-17T11:19:21.305Z,99680.78
2022-10-17T11:20:42.322Z,99677.41
2022-10-17T11:21:53.077Z,99677.88
2022-10-17T11:23:21.820Z,99673.37
2022-10-17T11:24:40.074Z,99672.84
2022-10-17T11:25:43.530Z,99670.00
2022-10-17T11:26:56.026Z,99671.75
2022-10-17T11:28:04.481Z,99671.91
2022-10-17T11:29:13.940Z,99675.25
2022-10-17T11:30:17.973Z,99670.78
2022-10-17T11:31:23.838Z,99666.34
2022-10-17T11:32:33.577Z,99658.19
2022-10-17T11:33:42.522Z,99665.66
2022-10-17T11:34:50.301Z,99672.59
2022-10-17T11:35:58.875Z,99665.28
2022-10-17T11:37:12.355Z,99658.09
2022-10-17T11:38:25.817Z,99671.69
2022-10-17T11:39:37.433Z,99663.69
2022-10-17T11:40:45.213Z,99667.69
2022-10-17T11:42:03.402Z,99660.06
2022-10-17T11:43:20.506Z,99659.53
2022-10-17T11:44:29.534Z,99660.66
2022-10-17T11:45:37.167Z,99658.22
2022-10-17T11:46:41.948Z,99662.72
2022-10-17T11:47:49.699Z,99652.06
2022-10-17T11:49:01.998Z,99664.00
2022-10-17T11:52:05.951Z,99647.50
2022-10-17T11:53:17.212Z,99653.25
2022-10-17T11:54:39.566Z,99656.66
2022-10-17T11:55:43.810Z,99671.75
2022-10-17T11:57:13.990Z,99662.34
2022-10-17T11:58:30.406Z,99666.37
2022-10-17T12:00:04.231Z,99650.78
2022-10-17T12:01:27.728Z,99656.16
2022-10-17T12:02:39.392Z,99658.75
2022-10-17T12:04:04.251Z,99645.56
2022-10-17T12:05:29.023Z,99653.28
2022-10-17T12:07:03.730Z,99645.44
2022-10-17T12:08:31.288Z,99649.44
2022-10-17T12:09:46.466Z,99649.97
2022-10-17T12:11:37.369Z,99644.94
2022-10-17T12:12:40.830Z,99641.06
2022-10-17T12:13:52.043Z,99646.44
2022-10-17T12:15:15.443Z,99643.44
2022-10-17T12:16:20.990Z,99648.84
2022-10-17T12:17:32.979Z,99639.41
2022-10-17T12:18:36.979Z,99642.69
2022-10-17T12:19:39.900Z,99633.75
2022-10-17T12:20:42.874Z,99638.75
2022-10-17T12:21:59.558Z,99633.09
2022-10-17T12:23:21.632Z,99632.44
2022-10-17T12:26:01.483Z,99635.19
2022-10-17T12:27:48.362Z,99623.69
2022-10-17T12:28:51.799Z,99627.13
2022-10-17T12:30:06.611Z,99628.94
2022-10-17T12:31:22.350Z,99632.56
2022-10-17T12:32:30.161Z,99623.56
2022-10-17T12:33:57.626Z,99628.06
2022-10-17T12:35:01.389Z,99624.44
2022-10-17T12:36:22.786Z,99619.25
2022-10-17T12:37:43.748Z,99623.34
2022-10-17T12:38:52.295Z,99617.38
2022-10-17T12:39:55.165Z,99625.16
2022-10-17T12:40:58.631Z,99625.19
2022-10-17T12:42:01.556Z,99622.63
2022-10-17T12:43:30.357Z,99621.00
2022-10-17T12:44:34.927Z,99620.94
2022-10-17T12:46:01.029Z,99619.09
2022-10-17T12:47:08.193Z,99625.63
2022-10-17T12:48:11.278Z,99616.25
2022-10-17T12:49:36.813Z,99618.00
2022-10-17T12:51:34.707Z,99614.22
2022-10-17T12:52:37.450Z,99624.50
2022-10-17T12:54:07.319Z,99610.31
2022-10-17T12:55:19.559Z,99615.59
2022-10-17T12:56:47.348Z,99622.16
2022-10-17T12:58:00.256Z,99616.25
2022-10-17T12:59:20.452Z,99610.22
2022-10-17T13:01:05.246Z,99613.13
2022-10-17T13:02:20.580Z,99609.12
2022-10-17T13:03:34.073Z,99620.41
2022-10-17T13:04:37.268Z,99615.94
2022-10-17T13:05:44.206Z,99625.59
2022-10-17T13:06:53.492Z,99615.03
2022-10-17T13:07:58.004Z,99617.19
2022-10-17T13:09:05.681Z,99616.81
2022-10-17T13:10:21.189Z,99614.97
2022-10-17T13:11:32.073Z,99617.63
2022-10-17T13:12:41.161Z,99616.22
2022-10-17T13:13:49.776Z,99614.69
2022-10-17T13:14:55.354Z,99617.41
2022-10-17T13:15:58.296Z,99613.75
2022-10-17T13:17:07.172Z,99608.94
2022-10-17T13:18:21.162Z,99613.88
2022-10-17T13:19:40.345Z,99621.06
2022-10-17T13:20:43.162Z,99609.72
2022-10-17T13:21:59.884Z,99615.50
2022-10-17T13:23:06.528Z,99607.31
2022-10-17T13:24:28.773Z,99606.97
2022-10-17T13:25:31.636Z,99604.19
2022-10-17T13:26:34.528Z,99604.59
2022-10-17T13:27:37.823Z,99600.81
2022-10-17T13:28:41.974Z,99601.06
2022-10-17T13:29:45.104Z,99606.66
2022-10-17T13:30:49.675Z,99601.81
2022-10-17T13:32:01.347Z,99606.88
2022-10-17T13:33:16.610Z,99600.69
2022-10-17T13:34:22.498Z,99606.47
2022-10-17T13:35:58.898Z,99604.44